Time;durP1;ratioP1;P1;durP2;ratioP2;P2;SDS_P1;SDS_P2;PMS_P1;PMS_P2;Temp;Humidity;BMP_temperature;BMP_pressure;BME280_temperature;BME280_humidity;BME280_pressure;Samples;Min_cycle;Max_cycle;Signal;HPM_P1;HPM_P2
2022/08/14 00:02:03;;;;;;;12.73;11.63;;;21.40;1.00;;;;;;5090761;28;20440;-55
2022/08/14 00:04:33;;;;;;;13.20;12.10;;;21.40;1.00;;;;;;5090635;28;20241;-56
2022/08/14 00:06:59;;;;;;;11.60;10.53;;;21.30;1.00;;;;;;5090910;28;20415;-55
2022/08/14 00:09:25;;;;;;;14.00;12.63;;;21.40;1.00;;;;;;5090591;28;20423;-53
2022/08/14 00:11:50;;;;;;;12.50;11.20;;;21.40;1.00;;;;;;5091317;28;20179;-55
2022/08/14 00:14:16;;;;;;;12.60;11.50;;;21.40;1.00;;;;;;5090823;28;20672;-55
2022/08/14 00:16:42;;;;;;;13.40;12.10;;;21.40;1.00;;;;;;5090425;28;20183;-55
2022/08/14 00:19:09;;;;;;;13.13;11.93;;;21.40;1.00;;;;;;5089928;28;20415;-55
2022/08/14 00:21:35;;;;;;;13.80;12.50;;;21.30;1.00;;;;;;5090275;28;20774;-56
2022/08/14 00:24:03;;;;;;;12.93;11.87;;;21.30;1.00;;;;;;5091587;28;20436;-55
2022/08/14 00:26:29;;;;;;;13.83;12.53;;;21.20;1.00;;;;;;5090764;28;20453;-56
2022/08/14 00:28:55;;;;;;;13.50;11.00;;;21.10;1.00;;;;;;5091708;28;20460;-55
2022/08/14 00:31:22;;;;;;;14.13;12.87;;;21.10;1.00;;;;;;5090340;28;20424;-54
2022/08/14 00:33:47;;;;;;;12.60;11.50;;;21.20;1.00;;;;;;5089643;28;20452;-55
2022/08/14 00:36:13;;;;;;;13.10;11.90;;;21.20;1.00;;;;;;5090507;28;20938;-54
2022/08/14 00:38:38;;;;;;;13.37;12.17;;;21.10;1.00;;;;;;5090925;28;20217;-54
2022/08/14 00:41:08;;;;;;;13.17;12.03;;;21.20;1.00;;;;;;5090184;28;20644;-54
2022/08/14 00:43:35;;;;;;;13.50;12.30;;;21.10;1.00;;;;;;5088576;28;20191;-56
2022/08/14 00:46:10;;;;;;;12.47;11.43;;;21.10;1.00;;;;;;5090404;28;20427;-56
2022/08/14 00:48:36;;;;;;;14.27;12.97;;;21.10;1.00;;;;;;5090228;28;20506;-56
2022/08/14 00:51:09;;;;;;;14.50;13.20;;;21.10;1.00;;;;;;5089496;28;20539;-54
2022/08/14 00:53:36;;;;;;;13.60;12.30;;;21.00;1.00;;;;;;5072670;28;20453;-55
2022/08/14 00:56:08;;;;;;;13.47;12.13;;;21.00;1.00;;;;;;5072691;28;20476;-53
2022/08/14 00:58:35;;;;;;;14.80;13.50;;;21.00;1.00;;;;;;5090101;28;20960;-54
2022/08/14 01:01:08;;;;;;;14.30;13.00;;;21.00;1.00;;;;;;5090346;28;20772;-54
2022/08/14 01:03:36;;;;;;;14.37;13.07;;;21.00;1.00;;;;;;5088273;28;20555;-54
2022/08/14 01:06:02;;;;;;;13.33;12.20;;;21.00;1.00;;;;;;5089945;28;20419;-54
2022/08/14 01:08:30;;;;;;;15.47;14.00;;;21.00;1.00;;;;;;5088725;28;20427;-54
2022/08/14 01:10:57;;;;;;;13.93;12.73;;;20.90;1.00;;;;;;5090361;28;20494;-55
2022/08/14 01:13:24;;;;;;;13.80;12.57;;;20.80;1.00;;;;;;5089887;28;20493;-55
2022/08/14 01:15:52;;;;;;;15.00;13.70;;;20.80;1.00;;;;;;5090084;28;20482;-55
2022/08/14 01:21:10;;;;;;;14.83;13.57;;;20.70;1.00;;;;;;5090030;28;20464;-53
2022/08/14 01:23:41;;;;;;;14.03;12.83;;;20.70;1.00;;;;;;5089829;28;20888;-55
2022/08/14 01:26:08;;;;;;;13.77;12.57;;;20.60;1.00;;;;;;5090484;28;20437;-56
2022/08/14 01:28:36;;;;;;;13.77;12.43;;;20.70;1.00;;;;;;5089872;28;20503;-55
2022/08/14 01:31:15;;;;;;;13.47;12.37;;;20.60;1.00;;;;;;5089897;28;20514;-56
2022/08/14 01:33:46;;;;;;;13.20;12.00;;;20.60;1.00;;;;;;5071206;28;20452;-55
2022/08/14 01:36:15;;;;;;;13.20;12.03;;;20.60;1.00;;;;;;5090219;28;20530;-55
2022/08/14 01:38:42;;;;;;;13.57;12.33;;;20.60;1.00;;;;;;5070537;28;20526;-55
2022/08/14 01:41:11;;;;;;;14.47;13.30;;;20.60;1.00;;;;;;5089653;28;20482;-57
2022/08/14 01:43:48;;;;;;;13.90;12.60;;;20.60;1.00;;;;;;5087990;28;20775;-56
2022/08/14 01:46:20;;;;;;;17.63;13.20;;;20.60;1.00;;;;;;5087337;28;20434;-53
2022/08/14 01:48:47;;;;;;;14.43;13.20;;;20.60;1.00;;;;;;5085840;28;20514;-54
2022/08/14 01:51:15;;;;;;;12.73;11.73;;;20.60;1.00;;;;;;5089278;28;20452;-54
2022/08/14 01:53:44;;;;;;;14.70;13.30;;;20.60;1.00;;;;;;5089292;28;20441;-56
2022/08/14 01:56:10;;;;;;;14.30;13.00;;;20.60;1.00;;;;;;5088252;28;20473;-56
2022/08/14 01:58:36;;;;;;;12.97;11.67;;;20.60;1.00;;;;;;5071237;28;20514;-55
2022/08/14 02:01:06;;;;;;;13.90;12.60;;;20.70;1.00;;;;;;5088003;28;20524;-56
2022/08/14 02:03:39;;;;;;;13.93;12.73;;;20.60;1.00;;;;;;5089158;28;20432;-54
2022/08/14 02:08:36;;;;;;;14.30;13.03;;;20.50;1.00;;;;;;5088305;28;20825;-56
2022/08/14 02:11:23;;;;;;;15.73;14.23;;;20.50;1.00;;;;;;5088478;28;20445;-53
2022/08/14 02:13:53;;;;;;;13.73;12.50;;;20.40;1.00;;;;;;5088859;28;20463;-55
2022/08/14 02:16:24;;;;;;;16.97;13.60;;;20.50;1.00;;;;;;5089578;28;21003;-54
2022/08/14 02:18:51;;;;;;;15.40;14.03;;;20.50;1.00;;;;;;5089008;28;20483;-54
2022/08/14 02:21:17;;;;;;;13.60;12.40;;;20.60;1.00;;;;;;5089867;28;20929;-55
2022/08/14 02:23:45;;;;;;;14.93;13.60;;;20.60;1.00;;;;;;5088431;28;20443;-55
2022/08/14 02:26:17;;;;;;;16.00;14.60;;;20.50;1.00;;;;;;5089787;28;20524;-55
2022/08/14 02:28:44;;;;;;;14.83;13.30;;;20.40;1.00;;;;;;5088280;28;21226;-54
2022/08/14 02:31:11;;;;;;;14.10;12.73;;;20.30;1.00;;;;;;5087386;28;20502;-54
2022/08/14 02:33:36;;;;;;;14.97;13.47;;;20.30;1.00;;;;;;5087680;28;20513;-53
2022/08/14 02:36:08;;;;;;;13.77;12.50;;;20.20;1.00;;;;;;5088503;28;20889;-54
2022/08/14 02:38:34;;;;;;;15.20;13.80;;;20.20;1.00;;;;;;5086851;28;20229;-54
2022/08/14 02:41:00;;;;;;;13.87;12.67;;;20.20;1.00;;;;;;5087827;28;20448;-55
2022/08/14 02:43:30;;;;;;;14.03;12.73;;;20.30;1.00;;;;;;5088472;28;20527;-55
2022/08/14 02:45:57;;;;;;;14.80;13.60;;;20.20;1.00;;;;;;5088562;28;20427;-56
2022/08/14 02:48:31;;;;;;;13.40;12.20;;;20.30;1.00;;;;;;5088052;28;20446;-56
2022/08/14 02:50:57;;;;;;;14.53;13.13;;;20.20;1.00;;;;;;5087899;28;20444;-56
2022/08/14 02:53:23;;;;;;;13.30;12.10;;;20.10;1.00;;;;;;5087171;28;20491;-53
2022/08/14 02:55:49;;;;;;;13.63;12.33;;;20.00;1.00;;;;;;5086144;28;21005;-56
2022/08/14 02:58:15;;;;;;;14.10;12.80;;;20.00;1.00;;;;;;5087473;28;20265;-54
2022/08/14 03:00:42;;;;;;;14.23;12.90;;;20.00;1.00;;;;;;5070096;28;20640;-56
2022/08/14 03:03:07;;;;;;;14.50;12.53;;;20.00;1.00;;;;;;5087281;28;20501;-56
2022/08/14 03:05:34;;;;;;;13.30;12.10;;;20.00;1.00;;;;;;5087362;28;20453;-55
2022/08/14 03:08:09;;;;;;;13.77;12.57;;;19.90;1.00;;;;;;5089852;28;20187;-56
2022/08/14 03:10:35;;;;;;;13.70;12.50;;;20.00;1.00;;;;;;5074148;28;20505;-55
2022/08/14 03:13:03;;;;;;;13.47;12.27;;;20.00;1.00;;;;;;5091376;28;20798;-54
2022/08/14 03:15:30;;;;;;;12.83;11.63;;;20.00;1.00;;;;;;5091956;28;20957;-54
2022/08/14 03:17:56;;;;;;;14.70;13.27;;;20.00;1.00;;;;;;5090490;28;20476;-54
2022/08/14 03:20:21;;;;;;;15.13;13.53;;;20.00;1.00;;;;;;5091125;28;20475;-54
2022/08/14 03:22:47;;;;;;;14.17;12.83;;;20.10;1.00;;;;;;5090899;28;20183;-55
2022/08/14 03:25:13;;;;;;;13.97;12.77;;;20.10;1.00;;;;;;5090349;28;20570;-54
2022/08/14 03:27:38;;;;;;;15.50;14.03;;;20.20;1.00;;;;;;5090606;28;20186;-54
2022/08/14 03:30:05;;;;;;;15.27;13.87;;;20.20;1.00;;;;;;5073415;28;20186;-53
2022/08/14 03:32:32;;;;;;;14.07;12.77;;;20.20;1.00;;;;;;5090281;28;20247;-56
2022/08/14 03:34:58;;;;;;;13.43;12.33;;;20.20;1.00;;;;;;5089045;28;20988;-54
2022/08/14 03:37:25;;;;;;;13.70;12.30;;;20.10;1.00;;;;;;5091232;28;20576;-53
2022/08/14 03:39:52;;;;;;;13.83;12.33;;;20.00;1.00;;;;;;5084935;28;20489;-54
2022/08/14 03:42:18;;;;;;;20.40;13.80;;;;;;;;;;5088824;28;20926;-55
2022/08/14 03:44:44;;;;;;;14.50;13.10;;;;;;;;;;5075608;28;20456;-55
2022/08/14 03:47:10;;;;;;;14.00;12.80;;;20.00;1.00;;;;;;5089632;28;20448;-54
2022/08/14 03:49:37;;;;;;;14.40;13.10;;;20.10;1.00;;;;;;5090269;28;20476;-54
2022/08/14 03:52:04;;;;;;;13.30;12.10;;;20.10;1.00;;;;;;5089829;28;20534;-54
2022/08/14 03:54:34;;;;;;;14.40;13.00;;;20.00;1.00;;;;;;5090724;28;20519;-53
2022/08/14 03:57:00;;;;;;;14.13;12.87;;;19.90;1.00;;;;;;5069883;28;20444;-55
2022/08/14 03:59:26;;;;;;;14.87;12.90;;;19.90;1.00;;;;;;5089292;28;20510;-54
2022/08/14 04:01:52;;;;;;;13.93;12.63;;;19.90;1.00;;;;;;5090200;28;20610;-53
2022/08/14 04:04:18;;;;;;;14.73;12.70;;;19.80;1.00;;;;;;5089631;28;20442;-56
2022/08/14 04:06:44;;;;;;;14.10;12.90;;;19.70;1.00;;;;;;5089737;28;20619;-53
2022/08/14 04:09:09;;;;;;;14.33;12.93;;;19.70;1.00;;;;;;5088553;28;20251;-53
2022/08/14 04:11:36;;;;;;;15.33;14.00;;;19.70;1.00;;;;;;5091173;28;20825;-54
2022/08/14 04:14:03;;;;;;;13.80;12.60;;;19.70;1.00;;;;;;5089348;28;20187;-54
2022/08/14 04:16:29;;;;;;;14.83;13.53;;;19.70;1.00;;;;;;5087524;28;20464;-55
2022/08/14 04:18:56;;;;;;;14.37;13.17;;;19.80;1.00;;;;;;5088268;28;20464;-54
2022/08/14 04:21:26;;;;;;;13.90;12.60;;;19.80;1.00;;;;;;5072554;28;20240;-54
2022/08/14 04:23:53;;;;;;;14.87;13.67;;;19.80;1.00;;;;;;5089103;28;20506;-53
2022/08/14 04:26:21;;;;;;;15.03;13.57;;;19.90;1.00;;;;;;5090821;28;20453;-53
2022/08/14 04:28:48;;;;;;;14.67;12.23;;;20.00;1.00;;;;;;5089877;28;20453;-54
2022/08/14 04:31:14;;;;;;;14.67;13.27;;;20.10;1.00;;;;;;5088133;28;20419;-53
2022/08/14 04:33:40;;;;;;;14.27;12.97;;;20.20;1.00;;;;;;5085443;28;20946;-53
2022/08/14 04:36:09;;;;;;;14.17;12.87;;;20.40;1.00;;;;;;5088230;28;20830;-53
2022/08/14 04:44:04;;;;;;;14.67;13.37;;;21.00;1.00;;;;;;5089281;28;20456;-55
2022/08/14 04:46:32;;;;;;;13.83;12.57;;;21.10;1.00;;;;;;5088890;28;20432;-56
2022/08/14 04:48:58;;;;;;;15.20;13.70;;;21.30;1.00;;;;;;5086812;28;20486;-55
2022/08/14 04:51:25;;;;;;;13.50;12.30;;;21.50;1.00;;;;;;5088200;28;20487;-54
2022/08/14 04:53:51;;;;;;;13.50;12.40;;;21.60;1.00;;;;;;5087591;28;20191;-55
2022/08/14 04:56:22;;;;;;;13.77;12.57;;;21.50;1.00;;;;;;5089129;28;20833;-53
2022/08/14 04:58:56;;;;;;;13.53;12.23;;;21.40;1.00;;;;;;5087520;28;20187;-56
2022/08/14 05:01:23;;;;;;;14.97;13.57;;;21.50;1.00;;;;;;5088386;28;20411;-54
2022/08/14 05:03:48;;;;;;;15.60;14.30;;;21.50;1.00;;;;;;5087575;28;20772;-54
2022/08/14 05:06:14;;;;;;;13.97;12.77;;;21.60;1.00;;;;;;5089146;28;20441;-54
2022/08/14 05:08:42;;;;;;;14.93;13.53;;;21.50;1.00;;;;;;5087824;28;20777;-54
2022/08/14 05:11:09;;;;;;;16.50;15.00;;;21.60;1.00;;;;;;5089446;28;20186;-56
2022/08/14 05:13:35;;;;;;;15.13;13.83;;;21.60;1.00;;;;;;5088759;28;20464;-53
2022/08/14 05:16:09;;;;;;;16.10;14.70;;;21.70;1.00;;;;;;5088773;28;20446;-55
2022/08/14 05:18:36;;;;;;;15.43;14.03;;;21.80;1.00;;;;;;5088445;28;20445;-55
2022/08/14 05:21:11;;;;;;;15.17;13.83;;;21.70;1.00;;;;;;5071348;28;20444;-55
2022/08/14 05:23:39;;;;;;;15.17;13.77;;;21.80;1.00;;;;;;5086506;28;20450;-55
2022/08/14 05:26:14;;;;;;;15.00;13.50;;;21.90;1.00;;;;;;5089314;28;20430;-53
2022/08/14 05:28:43;;;;;;;15.80;14.30;;;21.90;1.00;;;;;;5087099;28;20414;-57
2022/08/14 05:31:10;;;;;;;15.50;14.10;;;21.90;1.00;;;;;;5088393;28;20921;-54
2022/08/14 05:33:36;;;;;;;14.80;13.33;;;22.00;1.00;;;;;;5087276;28;20453;-54
2022/08/14 05:36:23;;;;;;;14.87;13.57;;;22.00;1.00;;;;;;5088074;28;20480;-53
2022/08/14 05:38:49;;;;;;;15.40;14.00;;;22.10;1.00;;;;;;5087379;28;20580;-53
2022/08/14 05:41:16;;;;;;;16.03;14.57;;;22.20;1.00;;;;;;5089173;28;20524;-55
2022/08/14 05:43:44;;;;;;;15.47;14.00;;;22.20;1.00;;;;;;5088423;28;20265;-55
2022/08/14 05:46:11;;;;;;;17.27;15.77;;;22.20;1.00;;;;;;5088020;28;20449;-56
2022/08/14 05:48:38;;;;;;;15.33;13.93;;;22.20;1.00;;;;;;5088657;28;20501;-55
2022/08/14 05:51:07;;;;;;;15.07;13.50;;;22.10;1.00;;;;;;5088786;28;20415;-55
2022/08/14 05:53:32;;;;;;;15.33;13.93;;;22.30;1.00;;;;;;5088291;28;20440;-55
2022/08/14 05:55:58;;;;;;;14.33;13.13;;;22.30;1.00;;;;;;5086433;28;20448;-56
2022/08/14 05:58:24;;;;;;;16.37;14.87;;;22.40;1.00;;;;;;5087181;28;20197;-55
2022/08/14 06:00:51;;;;;;;16.30;14.77;;;22.30;1.00;;;;;;5088621;28;20261;-55
2022/08/14 06:03:19;;;;;;;15.13;13.83;;;22.30;1.00;;;;;;5088470;28;20464;-55
2022/08/14 06:05:46;;;;;;;15.93;14.47;;;22.40;1.00;;;;;;5088304;28;20816;-54
2022/08/14 06:08:15;;;;;;;16.47;15.00;;;22.60;1.00;;;;;;5087958;28;20527;-57
2022/08/14 06:10:41;;;;;;;15.17;13.73;;;22.60;1.00;;;;;;5089114;28;20490;-54
2022/08/14 06:13:07;;;;;;;16.27;14.27;;;22.80;1.00;;;;;;5085522;28;20444;-55
2022/08/14 06:15:32;;;;;;;17.03;15.37;;;22.80;1.00;;;;;;5088194;28;20446;-56
2022/08/14 06:18:00;;;;;;;15.07;13.77;;;22.80;1.00;;;;;;5085533;28;20762;-54
2022/08/14 06:20:26;;;;;;;15.33;13.87;;;22.90;1.00;;;;;;5068944;28;20270;-54
2022/08/14 06:22:52;;;;;;;15.73;14.33;;;23.00;1.00;;;;;;5087773;28;20527;-54
2022/08/14 06:25:17;;;;;;;16.30;14.80;;;23.10;1.00;;;;;;5085661;28;20548;-54
2022/08/14 06:27:47;;;;;;;16.10;14.60;;;23.30;1.00;;;;;;5084071;28;20590;-55
2022/08/14 06:30:18;;;;;;;15.20;13.60;;;23.40;1.00;;;;;;5087964;28;20239;-55
2022/08/14 06:32:44;;;;;;;13.93;12.83;;;23.50;1.00;;;;;;5088259;28;20491;-55
2022/08/14 06:35:13;;;;;;;14.37;13.03;;;23.70;1.00;;;;;;5087581;28;20464;-54
2022/08/14 06:37:48;;;;;;;15.87;14.47;;;23.90;1.00;;;;;;5086499;28;20451;-55
2022/08/14 06:40:17;;;;;;;15.17;13.87;;;24.10;1.00;;;;;;5088559;28;20977;-53
2022/08/14 06:42:43;;;;;;;15.57;14.27;;;24.20;1.00;;;;;;5087996;28;20921;-54
2022/08/14 06:45:10;;;;;;;17.00;15.23;;;24.40;1.00;;;;;;5090370;28;20510;-55
2022/08/14 06:47:39;;;;;;;14.07;12.87;;;24.50;1.00;;;;;;5091597;28;20448;-55
2022/08/14 06:50:07;;;;;;;15.20;13.80;;;24.50;1.00;;;;;;5090421;28;20444;-54
2022/08/14 06:52:32;;;;;;;14.33;13.03;;;24.50;1.00;;;;;;5090493;28;20911;-55
2022/08/14 06:54:59;;;;;;;15.10;13.80;;;24.50;1.00;;;;;;5090371;28;20461;-55
2022/08/14 06:57:33;;;;;;;14.50;13.30;;;24.60;1.00;;;;;;5091180;28;20206;-55
2022/08/14 06:59:59;;;;;;;16.50;14.90;;;24.60;1.00;;;;;;5091621;28;20497;-54
2022/08/14 07:07:53;;;;;;;15.57;14.17;;;24.60;1.00;;;;;;5090431;28;20448;-54
2022/08/14 07:10:21;;;;;;;15.60;14.20;;;24.60;1.00;;;;;;5089577;28;20452;-53
2022/08/14 07:12:47;;;;;;;15.17;13.87;;;24.50;1.00;;;;;;5092181;28;20186;-56
2022/08/14 07:15:13;;;;;;;14.57;13.37;;;24.40;1.00;;;;;;5088890;28;20570;-56
2022/08/14 07:17:49;;;;;;;15.33;14.13;;;24.30;1.00;;;;;;5090892;28;20615;-53
2022/08/14 07:20:17;;;;;;;14.37;13.07;;;24.30;1.00;;;;;;5092551;28;20182;-55
2022/08/14 07:22:44;;;;;;;14.87;13.57;;;24.30;1.00;;;;;;5091655;28;20480;-55
2022/08/14 07:25:09;;;;;;;14.27;12.97;;;24.30;1.00;;;;;;5091538;28;20431;-53
2022/08/14 07:27:35;;;;;;;15.27;13.87;;;24.40;1.00;;;;;;5092316;28;20433;-54
2022/08/14 07:30:03;;;;;;;14.77;13.50;;;24.40;1.00;;;;;;5092603;28;20194;-54
2022/08/14 07:32:28;;;;;;;15.30;13.80;;;24.40;1.00;;;;;;5091765;28;20190;-55
2022/08/14 07:34:54;;;;;;;16.03;14.43;;;24.50;1.00;;;;;;5092543;28;20461;-55
2022/08/14 07:37:19;;;;;;;15.40;14.13;;;24.50;1.00;;;;;;5091217;28;20237;-54
2022/08/14 07:39:45;;;;;;;15.13;13.83;;;24.50;1.00;;;;;;5092004;28;20186;-56
2022/08/14 07:42:11;;;;;;;15.27;13.90;;;24.40;1.00;;;;;;5090776;28;20259;-54
2022/08/14 07:44:37;;;;;;;15.40;14.10;;;24.40;1.00;;;;;;5091618;28;20457;-56
2022/08/14 07:47:03;;;;;;;15.10;13.67;;;24.50;1.00;;;;;;5089498;28;20237;-54
2022/08/14 07:49:31;;;;;;;14.63;13.33;;;24.70;1.00;;;;;;5091488;28;20179;-55
2022/08/14 07:51:56;;;;;;;15.57;14.27;;;24.90;1.00;;;;;;5091390;28;20495;-55
2022/08/14 07:54:22;;;;;;;15.13;13.83;;;24.90;1.00;;;;;;5090765;28;20797;-56
2022/08/14 07:56:48;;;;;;;14.77;13.50;;;25.10;1.00;;;;;;5090635;28;20179;-53
2022/08/14 07:59:15;;;;;;;15.40;14.10;;;25.30;1.00;;;;;;5091376;28;20259;-54
2022/08/14 08:01:42;;;;;;;15.13;13.80;;;25.40;1.00;;;;;;5089713;28;20265;-55
2022/08/14 08:04:09;;;;;;;15.47;13.70;;;25.50;1.00;;;;;;5091241;28;20536;-54
2022/08/14 08:06:37;;;;;;;15.37;13.90;;;25.40;1.00;;;;;;5089589;28;20445;-54
2022/08/14 08:09:03;;;;;;;14.33;12.93;;;25.50;1.00;;;;;;5089251;28;20415;-55
2022/08/14 08:11:34;;;;;;;14.40;13.20;;;25.70;1.00;;;;;;5090118;28;20454;-55
2022/08/14 08:14:05;;;;;;;15.33;13.97;;;25.70;1.00;;;;;;5072318;28;20449;-54
2022/08/14 08:16:32;;;;;;;15.13;13.43;;;25.70;1.00;;;;;;5074305;28;20439;-57
2022/08/14 08:18:58;;;;;;;15.47;14.17;;;25.70;1.00;;;;;;5091163;28;20411;-55
2022/08/14 08:21:24;;;;;;;14.87;13.67;;;25.80;1.00;;;;;;5091106;28;20426;-56
2022/08/14 08:23:50;;;;;;;13.90;12.80;;;25.90;1.00;;;;;;5090810;28;20643;-55
2022/08/14 08:26:15;;;;;;;14.37;13.27;;;26.20;1.00;;;;;;5091333;28;20432;-55
2022/08/14 08:28:41;;;;;;;13.90;12.70;;;26.40;1.00;;;;;;5090718;28;20602;-57
2022/08/14 08:31:11;;;;;;;16.03;14.63;;;26.60;1.00;;;;;;5090627;28;20200;-54
2022/08/14 08:33:37;;;;;;;13.30;12.20;;;26.90;1.00;;;;;;5091781;28;20193;-55
2022/08/14 08:36:12;;;;;;;14.47;13.20;;;26.90;1.00;;;;;;5090622;28;20989;-54
2022/08/14 08:38:38;;;;;;;15.80;14.60;;;27.10;1.00;;;;;;5090651;28;20468;-55
2022/08/14 08:41:11;;;;;;;15.00;13.80;;;27.10;1.00;;;;;;5089620;28;20438;-53
2022/08/14 08:43:38;;;;;;;15.00;13.57;;;27.10;1.00;;;;;;5090323;28;20174;-53
2022/08/14 08:46:11;;;;;;;15.50;14.20;;;27.20;1.00;;;;;;5089870;28;20454;-54
2022/08/14 08:48:42;;;;;;;14.43;13.23;;;27.40;1.00;;;;;;5090436;28;20407;-54
2022/08/14 08:51:31;;;;;;;14.73;13.50;;;27.60;1.00;;;;;;5090347;28;20448;-54
2022/08/14 08:54:08;;;;;;;16.03;14.53;;;27.90;1.00;;;;;;5090202;28;20411;-54
2022/08/14 08:56:49;;;;;;;13.70;12.50;;;28.00;1.00;;;;;;5088704;28;20528;-55
2022/08/14 08:59:27;;;;;;;15.13;13.90;;;28.00;1.00;;;;;;5087469;28;20419;-55
2022/08/14 09:02:04;;;;;;;16.80;15.13;;;28.00;1.00;;;;;;5055603;28;20931;-54
2022/08/14 09:04:36;;;;;;;15.67;14.37;;;28.00;1.00;;;;;;5071535;28;20436;-54
2022/08/14 09:07:06;;;;;;;15.53;14.33;;;28.10;1.00;;;;;;5089512;28;20972;-54
2022/08/14 09:09:33;;;;;;;15.27;14.03;;;28.00;1.00;;;;;;5054003;28;20773;-54
2022/08/14 09:12:00;;;;;;;14.60;13.40;;;28.00;1.00;;;;;;5089371;28;20437;-54
2022/08/14 09:14:28;;;;;;;13.77;12.67;;;28.30;1.00;;;;;;5090249;28;20438;-55
2022/08/14 09:16:56;;;;;;;14.90;13.43;;;28.30;1.00;;;;;;5088214;28;20469;-55
2022/08/14 09:19:22;;;;;;;15.67;14.00;;;28.40;1.00;;;;;;5089729;28;20491;-55
2022/08/14 09:21:48;;;;;;;13.97;12.80;;;28.50;1.00;;;;;;5089286;28;20472;-56
2022/08/14 09:24:14;;;;;;;15.17;13.80;;;28.40;1.00;;;;;;5090433;28;20548;-55
2022/08/14 09:26:41;;;;;;;14.13;13.13;;;28.40;1.00;;;;;;5089324;28;20262;-54
2022/08/14 09:29:08;;;;;;;13.57;12.57;;;28.30;1.00;;;;;;5090248;28;20520;-56
2022/08/14 09:31:36;;;;;;;14.90;13.67;;;28.40;1.00;;;;;;5071428;28;20827;-55
2022/08/14 09:34:09;;;;;;;13.93;12.63;;;28.40;1.00;;;;;;5090320;28;20404;-56
2022/08/14 09:37:10;;;;;;;13.50;12.40;;;28.50;1.00;;;;;;5089276;28;20442;-56
2022/08/14 09:40:02;;;;;;;13.50;12.40;;;28.60;1.00;;;;;;5087000;28;20847;-54
2022/08/14 09:42:56;;;;;;;14.03;12.63;;;28.80;1.00;;;;;;5086332;28;20443;-54
2022/08/14 09:45:33;;;;;;;12.83;11.70;;;29.10;1.00;;;;;;5089379;28;20417;-54
2022/08/14 09:47:59;;;;;;;12.10;10.87;;;29.60;1.00;;;;;;5088890;28;20418;-55
2022/08/14 09:50:44;;;;;;;11.33;10.37;;;29.90;1.00;;;;;;5089290;28;20444;-55
2022/08/14 09:53:11;;;;;;;11.90;10.70;;;30.10;1.00;;;;;;5088941;28;20451;-53
2022/08/14 09:55:37;;;;;;;10.70;9.90;;;30.40;1.00;;;;;;5088705;28;20469;-54
2022/08/14 09:58:19;;;;;;;11.47;10.47;;;30.50;1.00;;;;;;5089969;28;20438;-55
2022/08/14 10:00:59;;;;;;;9.67;8.87;;;30.70;1.00;;;;;;5088871;28;20432;-54
2022/08/14 10:03:32;;;;;;;8.40;7.80;;;30.60;1.00;;;;;;5089664;28;20461;-55
2022/08/14 10:06:13;;;;;;;8.90;8.10;;;30.40;1.00;;;;;;5088684;28;20419;-53
2022/08/14 10:08:50;;;;;;;7.47;6.97;;;30.10;1.00;;;;;;5085756;28;20435;-54
2022/08/14 10:11:24;;;;;;;7.97;7.47;;;30.10;1.00;;;;;;5088453;28;20456;-53
2022/08/14 10:13:53;;;;;;;8.77;8.17;;;30.10;1.00;;;;;;5088840;28;20416;-55
2022/08/14 10:16:28;;;;;;;8.57;7.77;;;30.30;1.00;;;;;;5088666;28;20468;-55
2022/08/14 10:19:06;;;;;;;8.20;7.60;;;30.10;1.00;;;;;;5092898;28;20424;-56
2022/08/14 10:21:32;;;;;;;11.83;8.77;;;29.70;1.00;;;;;;5093789;28;20771;-55
2022/08/14 10:23:57;;;;;;;9.20;8.40;;;29.80;1.00;;;;;;5074746;28;20448;-55
2022/08/14 10:26:24;;;;;;;10.63;8.13;;;30.00;1.00;;;;;;5092587;28;20423;-56
2022/08/14 10:28:51;;;;;;;8.70;8.03;;;30.20;1.00;;;;;;5091278;28;20194;-54
2022/08/14 10:31:30;;;;;;;8.83;8.13;;;30.20;1.00;;;;;;5093689;28;20408;-54
2022/08/14 10:34:02;;;;;;;8.73;8.03;;;30.10;1.00;;;;;;5092266;28;20449;-53
2022/08/14 10:36:42;;;;;;;8.77;8.07;;;29.90;1.00;;;;;;5091881;28;20572;-54
2022/08/14 10:39:19;;;;;;;9.83;8.93;;;29.80;1.00;;;;;;5092643;28;20448;-53
2022/08/14 10:41:46;;;;;;;9.40;8.70;;;29.50;1.00;;;;;;5093273;28;20431;-56
2022/08/14 10:44:17;;;;;;;9.20;8.60;;;29.50;1.00;;;;;;5092555;28;20447;-56
2022/08/14 10:46:51;;;;;;;9.70;8.80;;;29.70;1.00;;;;;;5091071;28;20521;-54
2022/08/14 10:49:20;;;;;;;8.33;7.70;;;30.00;1.00;;;;;;5092229;28;20452;-54
2022/08/14 10:52:09;;;;;;;9.00;8.20;;;30.30;1.00;;;;;;5072786;28;20794;-54
2022/08/14 10:54:41;;;;;;;9.77;8.93;;;30.30;1.00;;;;;;5090540;28;20448;-56
2022/08/14 10:57:17;;;;;;;8.50;7.87;;;30.60;1.00;;;;;;5091938;28;20427;-55
2022/08/14 10:59:50;;;;;;;8.93;8.07;;;30.80;1.00;;;;;;5091994;28;20444;-54
2022/08/14 11:02:31;;;;;;;8.63;8.00;;;31.00;1.00;;;;;;5092073;28;20431;-54
2022/08/14 11:04:58;;;;;;;8.60;7.83;;;30.70;1.00;;;;;;5092830;28;20408;-54
2022/08/14 11:07:24;;;;;;;9.20;8.60;;;30.40;1.00;;;;;;5092698;28;20477;-55
2022/08/14 11:10:00;;;;;;;8.97;8.07;;;30.00;1.00;;;;;;5093127;28;20429;-56
2022/08/14 11:12:37;;;;;;;8.87;8.17;;;29.90;1.00;;;;;;5092603;28;20447;-55
2022/08/14 11:15:03;;;;;;;7.90;7.30;;;30.00;1.00;;;;;;5091222;28;21013;-55
2022/08/14 11:17:34;;;;;;;8.10;7.43;;;30.10;1.00;;;;;;5092597;28;20449;-55
2022/08/14 11:20:03;;;;;;;8.50;7.90;;;30.20;1.00;;;;;;5091770;28;20428;-55
2022/08/14 11:22:30;;;;;;;7.10;6.40;;;30.20;1.00;;;;;;5092912;28;20443;-55
2022/08/14 11:25:03;;;;;;;7.27;6.67;;;30.30;1.00;;;;;;5090735;28;20451;-55
2022/08/14 11:27:30;;;;;;;8.17;7.47;;;30.60;1.00;;;;;;5092366;28;20436;-55
2022/08/14 11:30:00;;;;;;;7.30;6.70;;;30.90;1.00;;;;;;5091290;28;20540;-55
2022/08/14 11:32:28;;;;;;;7.53;6.93;;;31.20;1.00;;;;;;5088544;28;20465;-55
2022/08/14 11:34:53;;;;;;;7.60;7.10;;;31.00;1.00;;;;;;5091421;28;20464;-55
2022/08/14 11:37:20;;;;;;;7.17;6.50;;;30.90;1.00;;;;;;5091474;28;20465;-55
2022/08/14 11:39:47;;;;;;;8.10;7.40;;;31.20;1.00;;;;;;5074010;28;20340;-54
2022/08/14 11:42:23;;;;;;;8.73;8.03;;;31.30;1.00;;;;;;5090097;28;20522;-55
2022/08/14 11:44:51;;;;;;;10.53;7.37;;;31.30;1.00;;;;;;5092164;28;20420;-55
2022/08/14 11:47:18;;;;;;;7.53;6.83;;;31.00;1.00;;;;;;5092219;28;20474;-55
2022/08/14 11:49:46;;;;;;;8.03;7.30;;;31.00;1.00;;;;;;5092422;28;20476;-53
2022/08/14 11:52:12;;;;;;;8.33;7.73;;;30.80;1.00;;;;;;5092181;28;20441;-55
2022/08/14 11:54:38;;;;;;;7.87;7.27;;;30.60;1.00;;;;;;5092416;28;20444;-54
2022/08/14 11:57:04;;;;;;;9.40;8.50;;;30.40;1.00;;;;;;5092224;28;20437;-54
2022/08/14 11:59:34;;;;;;;9.50;8.70;;;30.20;1.00;;;;;;5092174;28;20440;-55
2022/08/14 12:02:13;;;;;;;8.37;7.77;;;30.10;1.00;;;;;;5091721;28;20422;-53
2022/08/14 12:04:52;;;;;;;9.07;8.17;;;29.70;1.00;;;;;;5091974;28;20812;-55
2022/08/14 12:07:18;;;;;;;9.27;8.37;;;29.60;1.00;;;;;;5089663;28;20488;-55
2022/08/14 12:09:45;;;;;;;8.57;7.97;;;29.50;1.00;;;;;;5091057;28;20415;-56
2022/08/14 12:12:21;;;;;;;8.77;8.17;;;29.50;1.00;;;;;;5092038;28;20435;-54
2022/08/14 12:14:55;;;;;;;8.47;7.80;;;29.30;1.00;;;;;;5091098;28;20419;-54
2022/08/14 12:17:23;;;;;;;9.60;8.70;;;29.00;1.00;;;;;;5090931;28;20510;-55
2022/08/14 12:19:57;;;;;;;9.93;9.23;;;28.80;1.00;;;;;;5091776;28;20441;-56
2022/08/14 12:22:33;;;;;;;10.27;8.63;;;28.80;1.00;;;;;;5090725;28;20425;-53
2022/08/14 12:24:59;;;;;;;8.70;8.10;;;28.80;1.00;;;;;;5091728;28;20428;-54
2022/08/14 12:27:35;;;;;;;9.40;8.47;;;28.80;1.00;;;;;;5090630;28;20509;-54
2022/08/14 12:30:01;;;;;;;9.13;8.30;;;28.90;1.00;;;;;;5091429;28;20822;-53
2022/08/14 12:32:37;;;;;;;9.00;8.00;;;29.10;1.00;;;;;;5090284;28;20522;-55
2022/08/14 12:35:03;;;;;;;9.03;8.23;;;29.40;1.00;;;;;;5091282;28;20206;-55
2022/08/14 12:37:30;;;;;;;9.70;8.77;;;29.80;1.00;;;;;;5086464;28;20443;-53
2022/08/14 12:40:08;;;;;;;9.50;8.70;;;30.10;1.00;;;;;;5087010;28;20452;-53
2022/08/14 12:42:35;;;;;;;8.80;8.20;;;30.30;1.00;;;;;;5083066;28;20935;-54
2022/08/14 12:45:01;;;;;;;8.10;7.40;;;30.40;1.00;;;;;;5087837;28;20467;-55
2022/08/14 12:47:30;;;;;;;8.30;7.57;;;30.50;1.00;;;;;;5083723;28;21467;-54
2022/08/14 12:49:56;;;;;;;8.90;8.10;;;30.70;1.00;;;;;;5083622;28;20449;-54
2022/08/14 12:52:40;;;;;;;9.47;8.77;;;31.00;1.00;;;;;;5083145;28;20427;-56
2022/08/14 12:55:16;;;;;;;8.63;8.03;;;31.30;1.00;;;;;;5083719;28;20473;-55
2022/08/14 12:57:43;;;;;;;8.10;7.50;;;31.40;1.00;;;;;;5084067;28;20928;-55
2022/08/14 13:00:17;;;;;;;9.40;8.60;;;31.60;1.00;;;;;;5086429;28;20423;-54
2022/08/14 13:02:49;;;;;;;9.03;8.33;;;31.70;1.00;;;;;;5084669;28;20470;-54
2022/08/14 13:05:15;;;;;;;8.87;8.27;;;31.80;1.00;;;;;;5085468;28;20972;-55
2022/08/14 13:07:42;;;;;;;9.50;8.80;;;31.80;1.00;;;;;;5081599;28;20801;-53
2022/08/14 13:10:15;;;;;;;8.53;7.83;;;31.60;1.00;;;;;;5077559;28;20501;-55